Time;durP1;ratioP1;P1;durP2;ratioP2;P2;SDS_P1;SDS_P2;PMS_P1;PMS_P2;Temp;Humidity;BMP_temperature;BMP_pressure;BME280_temperature;BME280_humidity;BME280_pressure;Samples;Min_cycle;Max_cycle;Signal;HPM_P1;HPM_P2
2021/08/14 00:01:14;;;;;;;11.77;7.80;;;;;;;;;;4880308;29;20024;-82
2021/08/14 00:03:40;;;;;;;13.18;9.18;;;;;;;;;;4883214;29;20041;-80
2021/08/14 00:06:05;;;;;;;14.50;7.67;;;;;;;;;;4884620;29;20029;-81
2021/08/14 00:08:30;;;;;;;10.77;7.43;;;;;;;;;;4882737;29;20025;-81
2021/08/14 00:10:56;;;;;;;11.73;7.45;;;;;;;;;;4886047;29;20376;-81
2021/08/14 00:13:21;;;;;;;11.97;7.47;;;;;;;;;;4878158;29;20029;-81
2021/08/14 00:15:46;;;;;;;12.77;8.03;;;;;;;;;;4891522;29;20141;-80
2021/08/14 00:18:11;;;;;;;10.02;7.78;;;;;;;;;;4884127;29;20088;-81
2021/08/14 00:20:37;;;;;;;10.70;8.07;;;;;;;;;;4886466;29;20028;-83
2021/08/14 00:23:02;;;;;;;10.77;8.07;;;;;;;;;;4885414;29;20020;-83
2021/08/14 00:25:27;;;;;;;11.27;8.30;;;;;;;;;;4882473;29;20104;-80
2021/08/14 00:27:53;;;;;;;12.95;8.38;;;;;;;;;;4885118;29;20265;-81
2021/08/14 00:30:18;;;;;;;10.30;7.80;;;;;;;;;;4877660;29;20029;-81
2021/08/14 00:32:44;;;;;;;12.48;8.20;;;;;;;;;;4887668;29;20016;-81
2021/08/14 00:35:09;;;;;;;9.67;7.53;;;;;;;;;;4882861;29;20048;-81
2021/08/14 00:37:35;;;;;;;10.57;7.60;;;;;;;;;;4883819;29;20027;-81
2021/08/14 00:40:00;;;;;;;11.50;8.53;;;;;;;;;;4889439;29;20031;-80
2021/08/14 00:42:25;;;;;;;12.20;7.88;;;;;;;;;;4881350;29;20141;-81
2021/08/14 00:44:50;;;;;;;10.83;7.50;;;;;;;;;;4886265;29;20028;-81
2021/08/14 00:47:16;;;;;;;10.98;7.95;;;;;;;;;;4883400;29;20021;-82
2021/08/14 00:49:41;;;;;;;9.97;7.20;;;;;;;;;;4883387;29;20021;-82
2021/08/14 00:52:06;;;;;;;9.40;7.10;;;;;;;;;;4880416;29;20036;-81
2021/08/14 00:54:31;;;;;;;16.40;8.90;;;;;;;;;;4886120;29;20497;-80
2021/08/14 00:56:57;;;;;;;9.47;7.40;;;;;;;;;;4861407;29;20273;-80
2021/08/14 00:59:24;;;;;;;11.27;7.63;;;;;;;;;;4883979;29;20051;-80
2021/08/14 01:01:49;;;;;;;10.95;7.38;;;;;;;;;;4883176;29;20803;-80
2021/08/14 01:04:14;;;;;;;12.40;7.70;;;;;;;;;;4891521;29;20139;-80
2021/08/14 01:06:40;;;;;;;9.98;7.63;;;;;;;;;;4886112;29;20068;-81
2021/08/14 01:09:06;;;;;;;10.82;7.82;;;;;;;;;;4880731;29;20067;-81
2021/08/14 01:11:31;;;;;;;11.02;7.40;;;;;;;;;;4882416;29;20484;-81
2021/08/14 01:13:57;;;;;;;10.30;7.35;;;;;;;;;;4878817;29;20025;-81
2021/08/14 01:16:24;;;;;;;10.75;7.57;;;;;;;;;;4881956;29;20492;-81
2021/08/14 01:18:49;;;;;;;10.52;7.10;;;;;;;;;;4866003;29;20397;-81
2021/08/14 01:21:15;;;;;;;11.27;7.07;;;;;;;;;;4885818;29;20028;-81
2021/08/14 01:23:41;;;;;;;10.30;7.18;;;;;;;;;;4872669;29;20332;-82
2021/08/14 01:26:10;;;;;;;10.45;7.25;;;;;;;;;;4890841;29;20056;-81
2021/08/14 01:28:37;;;;;;;12.35;8.88;;;;;;;;;;4882620;29;20032;-81
2021/08/14 01:31:06;;;;;;;15.02;8.48;;;;;;;;;;4878789;29;20059;-81
2021/08/14 01:33:35;;;;;;;10.18;7.40;;;;;;;;;;4883617;29;20546;-81
2021/08/14 01:36:05;;;;;;;9.50;7.10;;;;;;;;;;4885208;29;20156;-80
2021/08/14 01:38:30;;;;;;;11.10;7.00;;;;;;;;;;4883811;29;20104;-79
2021/08/14 01:40:56;;;;;;;12.83;8.07;;;;;;;;;;4886914;29;20548;-79
2021/08/14 01:43:21;;;;;;;13.95;7.82;;;;;;;;;;4879882;29;20108;-82
2021/08/14 01:45:47;;;;;;;11.73;8.07;;;;;;;;;;4883938;29;20057;-80
2021/08/14 01:48:12;;;;;;;9.02;6.65;;;;;;;;;;4879616;29;20417;-81
2021/08/14 01:50:38;;;;;;;10.07;6.93;;;;;;;;;;4884984;29;20025;-80
2021/08/14 01:53:03;;;;;;;10.75;7.55;;;;;;;;;;4888019;29;20060;-80
2021/08/14 01:55:28;;;;;;;9.33;7.33;;;;;;;;;;4892739;29;20024;-80
2021/08/14 01:57:54;;;;;;;12.52;8.05;;;;;;;;;;4875888;29;20029;-80
2021/08/14 02:00:19;;;;;;;11.47;7.50;;;;;;;;;;4882535;29;20107;-80
2021/08/14 02:02:44;;;;;;;10.20;7.07;;;;;;;;;;4884439;29;20064;-80
2021/08/14 02:05:09;;;;;;;12.93;8.05;;;;;;;;;;4880686;29;20029;-80
2021/08/14 02:07:35;;;;;;;16.27;7.80;;;;;;;;;;4882424;29;20021;-80
2021/08/14 02:10:00;;;;;;;9.90;7.17;;;;;;;;;;4883190;29;20029;-80
2021/08/14 02:12:25;;;;;;;10.97;8.07;;;;;;;;;;4882422;29;20033;-81
2021/08/14 02:14:50;;;;;;;11.43;7.57;;;;;;;;;;4881444;29;20032;-80
2021/08/14 02:17:15;;;;;;;13.10;8.40;;;;;;;;;;4885136;29;20504;-80
2021/08/14 02:19:41;;;;;;;10.48;7.85;;;;;;;;;;4880160;29;20458;-80
2021/08/14 02:22:06;;;;;;;10.97;7.80;;;;;;;;;;4880998;29;20116;-80
2021/08/14 02:24:34;;;;;;;11.32;7.43;;;;;;;;;;4889854;29;20311;-81
2021/08/14 02:27:00;;;;;;;10.82;7.80;;;;;;;;;;4881742;29;20496;-80
2021/08/14 02:29:26;;;;;;;10.43;8.02;;;;;;;;;;4879609;29;20376;-80
2021/08/14 02:31:51;;;;;;;14.48;7.25;;;;;;;;;;4879127;29;20029;-81
2021/08/14 02:34:16;;;;;;;13.33;7.07;;;;;;;;;;4877459;29;20025;-80
2021/08/14 02:36:41;;;;;;;12.20;7.07;;;;;;;;;;4880879;29;20043;-80
2021/08/14 02:39:07;;;;;;;9.30;7.53;;;;;;;;;;4886481;29;20071;-80
2021/08/14 02:41:32;;;;;;;12.40;7.47;;;;;;;;;;4889700;29;20277;-80
2021/08/14 02:43:57;;;;;;;11.55;6.85;;;;;;;;;;4882929;29;20112;-81
2021/08/14 02:46:22;;;;;;;14.20;7.37;;;;;;;;;;4891552;29;20468;-81
2021/08/14 02:48:48;;;;;;;13.52;7.40;;;;;;;;;;4881156;29;20032;-80
2021/08/14 02:51:14;;;;;;;10.45;7.22;;;;;;;;;;4887530;29;20055;-80
2021/08/14 02:53:39;;;;;;;8.80;7.03;;;;;;;;;;4888581;29;20472;-81
2021/08/14 02:56:05;;;;;;;14.68;7.80;;;;;;;;;;4893124;29;20061;-81
2021/08/14 02:58:30;;;;;;;13.00;7.50;;;;;;;;;;4888574;29;20088;-83
2021/08/14 03:00:55;;;;;;;11.10;7.60;;;;;;;;;;4883548;29;20055;-80
2021/08/14 03:03:21;;;;;;;12.50;8.05;;;;;;;;;;4881239;29;20084;-80
2021/08/14 03:05:46;;;;;;;9.47;7.17;;;;;;;;;;4886436;29;20519;-81
2021/08/14 03:08:11;;;;;;;10.55;7.82;;;;;;;;;;4887891;29;20713;-81
2021/08/14 03:10:38;;;;;;;12.50;7.38;;;;;;;;;;4892318;29;20049;-81
2021/08/14 03:13:03;;;;;;;11.13;7.40;;;;;;;;;;4892348;29;20031;-81
2021/08/14 03:15:28;;;;;;;10.70;7.68;;;;;;;;;;4893152;29;20056;-81
2021/08/14 03:17:54;;;;;;;15.03;8.13;;;;;;;;;;4896135;29;20060;-81
2021/08/14 03:20:19;;;;;;;10.13;7.47;;;;;;;;;;4882018;29;20270;-82
2021/08/14 03:22:44;;;;;;;9.47;7.70;;;;;;;;;;4886000;29;20037;-82
2021/08/14 03:25:10;;;;;;;11.97;7.83;;;;;;;;;;4890796;29;20660;-81
2021/08/14 03:27:35;;;;;;;10.60;7.85;;;;;;;;;;4888371;29;20028;-81
2021/08/14 03:30:00;;;;;;;11.03;7.73;;;;;;;;;;4879474;29;20129;-81
2021/08/14 03:32:26;;;;;;;9.27;6.73;;;;;;;;;;4885185;29;20285;-81
2021/08/14 03:34:51;;;;;;;10.83;7.30;;;;;;;;;;4887140;29;20037;-81
2021/08/14 03:37:17;;;;;;;11.13;7.25;;;;;;;;;;4880896;29;20077;-80
2021/08/14 03:39:42;;;;;;;10.80;6.97;;;;;;;;;;4885019;29;20028;-81
2021/08/14 03:42:07;;;;;;;11.93;7.00;;;;;;;;;;4889367;29;20031;-81
2021/08/14 03:44:33;;;;;;;9.85;7.25;;;;;;;;;;4882315;29;20277;-81
2021/08/14 03:46:58;;;;;;;9.45;7.00;;;;;;;;;;4893038;29;20017;-80
2021/08/14 03:49:23;;;;;;;10.33;7.30;;;;;;;;;;4893468;29;20108;-81
2021/08/14 03:51:49;;;;;;;9.63;7.07;;;;;;;;;;4884664;29;20297;-81
2021/08/14 03:54:14;;;;;;;9.80;7.10;;;;;;;;;;4884316;29;20269;-81
2021/08/14 03:56:39;;;;;;;10.57;7.60;;;;;;;;;;4879471;29;20032;-81
2021/08/14 03:59:04;;;;;;;8.93;6.90;;;;;;;;;;4886414;29;20281;-81
2021/08/14 04:01:30;;;;;;;12.05;8.18;;;;;;;;;;4887768;29;20036;-80
2021/08/14 04:03:55;;;;;;;10.67;7.47;;;;;;;;;;4880969;29;20045;-81
2021/08/14 04:06:20;;;;;;;13.13;7.28;;;;;;;;;;4890926;29;20261;-81
2021/08/14 04:08:46;;;;;;;9.77;7.07;;;;;;;;;;4886925;29;20045;-80
2021/08/14 04:11:11;;;;;;;12.23;7.53;;;;;;;;;;4889720;29;20284;-80
2021/08/14 04:13:36;;;;;;;9.77;7.07;;;;;;;;;;4885727;29;20028;-82
2021/08/14 04:16:02;;;;;;;10.73;8.50;;;;;;;;;;4893386;29;20029;-82
2021/08/14 04:18:28;;;;;;;10.23;7.65;;;;;;;;;;4892578;29;20480;-80
2021/08/14 04:20:53;;;;;;;10.48;7.30;;;;;;;;;;4883283;29;20036;-80
2021/08/14 04:23:19;;;;;;;10.82;8.20;;;;;;;;;;4895626;29;20168;-81
2021/08/14 04:25:44;;;;;;;11.02;7.68;;;;;;;;;;4882585;29;20028;-80
2021/08/14 04:28:10;;;;;;;12.02;7.40;;;;;;;;;;4885818;29;20017;-80
2021/08/14 04:30:35;;;;;;;10.77;8.07;;;;;;;;;;4878264;29;20107;-80
2021/08/14 04:33:00;;;;;;;10.68;7.18;;;;;;;;;;4891185;29;20260;-81
2021/08/14 04:35:26;;;;;;;8.90;6.83;;;;;;;;;;4890986;29;20025;-80
2021/08/14 04:37:51;;;;;;;10.23;7.23;;;;;;;;;;4880105;29;20269;-81
2021/08/14 04:40:16;;;;;;;9.75;7.18;;;;;;;;;;4880090;29;20622;-80
2021/08/14 04:42:42;;;;;;;11.63;7.65;;;;;;;;;;4887893;29;20064;-81
2021/08/14 04:45:08;;;;;;;10.57;8.32;;;;;;;;;;4878875;29;20017;-80
2021/08/14 04:47:33;;;;;;;10.90;7.18;;;;;;;;;;4887660;29;20013;-81
2021/08/14 04:49:58;;;;;;;9.80;7.22;;;;;;;;;;4883443;29;20029;-81
2021/08/14 04:52:24;;;;;;;15.25;8.35;;;;;;;;;;4884123;29;20025;-80
2021/08/14 04:54:49;;;;;;;10.87;7.67;;;;;;;;;;4885983;29;20063;-80
2021/08/14 04:57:15;;;;;;;12.57;7.15;;;;;;;;;;4887338;29;20827;-81
2021/08/14 04:59:40;;;;;;;9.63;7.72;;;;;;;;;;4881518;29;20032;-80
2021/08/14 05:02:05;;;;;;;9.10;6.93;;;;;;;;;;4881403;29;20033;-81
2021/08/14 05:04:32;;;;;;;10.70;7.03;;;;;;;;;;4876750;29;20772;-81
2021/08/14 05:06:59;;;;;;;9.73;7.32;;;;;;;;;;4879942;29;20445;-81
2021/08/14 05:09:24;;;;;;;12.27;8.43;;;;;;;;;;4884614;29;20437;-81
2021/08/14 05:11:49;;;;;;;12.07;7.23;;;;;;;;;;4876486;29;20061;-81
2021/08/14 05:14:14;;;;;;;12.73;8.07;;;;;;;;;;4891425;29;20311;-81
2021/08/14 05:16:40;;;;;;;12.60;8.07;;;;;;;;;;4887227;29;20024;-83
2021/08/14 05:19:06;;;;;;;11.87;7.93;;;;;;;;;;4881093;29;20115;-81
2021/08/14 05:21:33;;;;;;;12.18;8.15;;;;;;;;;;4883285;29;20388;-81
2021/08/14 05:23:59;;;;;;;15.15;7.50;;;;;;;;;;4888618;29;20100;-81
2021/08/14 05:26:25;;;;;;;12.23;7.60;;;;;;;;;;4858949;29;20025;-80
2021/08/14 05:28:50;;;;;;;11.85;7.82;;;;;;;;;;4880484;29;20611;-81
2021/08/14 05:31:16;;;;;;;11.57;7.20;;;;;;;;;;4881127;29;20036;-80
2021/08/14 05:33:41;;;;;;;10.37;6.97;;;;;;;;;;4885088;29;20024;-81
2021/08/14 05:36:08;;;;;;;10.90;7.63;;;;;;;;;;4877323;29;20025;-81
2021/08/14 05:38:34;;;;;;;12.80;7.30;;;;;;;;;;4880132;29;20790;-81
2021/08/14 05:40:59;;;;;;;13.15;7.53;;;;;;;;;;4878036;29;20033;-80
2021/08/14 05:43:24;;;;;;;9.90;7.00;;;;;;;;;;4868854;29;20006;-81
2021/08/14 05:45:50;;;;;;;12.38;7.35;;;;;;;;;;4876069;29;20252;-81
2021/08/14 05:48:17;;;;;;;12.55;7.07;;;;;;;;;;4878432;29;20025;-81
2021/08/14 05:50:43;;;;;;;10.48;7.80;;;;;;;;;;4861832;29;20386;-81
2021/08/14 05:53:08;;;;;;;12.10;7.75;;;;;;;;;;4876488;29;20398;-81
2021/08/14 05:55:35;;;;;;;11.00;7.03;;;;;;;;;;4876553;29;20017;-81
2021/08/14 05:58:00;;;;;;;11.93;7.22;;;;;;;;;;4875485;29;20438;-81
2021/08/14 06:00:25;;;;;;;11.35;6.82;;;;;;;;;;4880348;29;20018;-81
2021/08/14 06:02:51;;;;;;;11.98;7.22;;;;;;;;;;4875774;29;20060;-81
2021/08/14 06:05:16;;;;;;;8.80;7.23;;;;;;;;;;4876870;29;20013;-81
2021/08/14 06:07:41;;;;;;;11.20;7.22;;;;;;;;;;4876338;29;20035;-81
2021/08/14 06:10:08;;;;;;;11.93;7.47;;;;;;;;;;4883274;29;20366;-81
2021/08/14 06:12:33;;;;;;;12.23;7.20;;;;;;;;;;4876426;29;20445;-81
2021/08/14 06:14:59;;;;;;;10.77;6.75;;;;;;;;;;4874735;29;20037;-82
2021/08/14 06:17:24;;;;;;;9.57;7.28;;;;;;;;;;4883886;29;20048;-82
2021/08/14 06:19:49;;;;;;;11.25;6.82;;;;;;;;;;4883536;29;20045;-81
2021/08/14 06:22:14;;;;;;;8.32;6.32;;;;;;;;;;4878813;29;20021;-82
2021/08/14 06:24:40;;;;;;;12.30;7.53;;;;;;;;;;4877957;29;20480;-82
2021/08/14 06:27:05;;;;;;;10.02;6.80;;;;;;;;;;4881956;29;20126;-80
2021/08/14 06:29:30;;;;;;;13.63;6.45;;;;;;;;;;4879147;29;20036;-81
2021/08/14 06:31:56;;;;;;;12.13;7.90;;;;;;;;;;4884059;29;20056;-83
2021/08/14 06:34:21;;;;;;;10.52;7.30;;;;;;;;;;4877310;29;20257;-84
2021/08/14 06:36:47;;;;;;;10.95;6.40;;;;;;;;;;4880144;29;20036;-83
2021/08/14 06:39:12;;;;;;;10.13;6.88;;;;;;;;;;4885014;29;20057;-83
2021/08/14 06:41:37;;;;;;;9.57;6.70;;;;;;;;;;4881661;29;20029;-83
2021/08/14 06:44:02;;;;;;;10.47;7.07;;;;;;;;;;4878350;29;20053;-82
2021/08/14 06:46:28;;;;;;;11.45;7.18;;;;;;;;;;4872341;29;20055;-83
2021/08/14 06:48:53;;;;;;;10.18;7.13;;;;;;;;;;4873143;29;20028;-82
2021/08/14 06:51:19;;;;;;;11.50;6.88;;;;;;;;;;4877798;29;20036;-81
2021/08/14 06:53:44;;;;;;;10.32;7.28;;;;;;;;;;4876732;29;20033;-81
2021/08/14 06:56:10;;;;;;;10.93;7.40;;;;;;;;;;4879135;29;20021;-81
2021/08/14 06:58:35;;;;;;;11.93;7.40;;;;;;;;;;4878562;29;20033;-81
2021/08/14 07:01:01;;;;;;;8.45;6.32;;;;;;;;;;4878484;29;20032;-80
2021/08/14 07:03:26;;;;;;;8.63;7.00;;;;;;;;;;4879913;29;20101;-78
2021/08/14 07:05:51;;;;;;;10.57;7.20;;;;;;;;;;4884219;29;20032;-79
2021/08/14 07:08:16;;;;;;;8.90;6.57;;;;;;;;;;4884064;29;20052;-80
2021/08/14 07:10:41;;;;;;;11.43;7.63;;;;;;;;;;4883421;29;20468;-82
2021/08/14 07:13:07;;;;;;;11.05;7.38;;;;;;;;;;4883159;29;20025;-81
2021/08/14 07:15:32;;;;;;;10.97;6.83;;;;;;;;;;4878259;29;20519;-79
2021/08/14 07:17:58;;;;;;;10.07;6.50;;;;;;;;;;4879292;29;20485;-81
2021/08/14 07:20:23;;;;;;;12.85;7.25;;;;;;;;;;4881509;29;20031;-80
2021/08/14 07:22:48;;;;;;;10.65;7.40;;;;;;;;;;4889452;29;20376;-77
2021/08/14 07:25:14;;;;;;;9.43;6.97;;;;;;;;;;4878887;29;20021;-77
2021/08/14 07:27:40;;;;;;;10.23;6.85;;;;;;;;;;4878776;29;20029;-80
2021/08/14 07:30:05;;;;;;;11.65;6.50;;;;;;;;;;4878028;29;20084;-79
2021/08/14 07:32:30;;;;;;;7.75;6.10;;;;;;;;;;4876921;29;20029;-78
2021/08/14 07:34:56;;;;;;;10.63;7.00;;;;;;;;;;4875707;29;20025;-79
2021/08/14 07:37:21;;;;;;;10.02;7.07;;;;;;;;;;4883792;29;20069;-85
2021/08/14 07:39:47;;;;;;;10.48;6.57;;;;;;;;;;4892714;29;20040;-79
2021/08/14 07:42:12;;;;;;;11.13;6.83;;;;;;;;;;4881990;29;20036;-78
2021/08/14 07:44:37;;;;;;;10.95;6.82;;;;;;;;;;4871195;29;20301;-80
2021/08/14 07:47:02;;;;;;;9.77;6.70;;;;;;;;;;4884759;29;20535;-79
2021/08/14 07:49:28;;;;;;;11.25;6.85;;;;;;;;;;4885984;29;20759;-79
2021/08/14 07:51:53;;;;;;;9.68;6.22;;;;;;;;;;4885499;29;20060;-80
2021/08/14 07:54:22;;;;;;;11.77;6.70;;;;;;;;;;4876429;29;20512;-79
2021/08/14 07:56:53;;;;;;;10.68;6.65;;;;;;;;;;4891499;29;20029;-79
2021/08/14 07:59:19;;;;;;;10.10;6.28;;;;;;;;;;4884286;29;20029;-79
2021/08/14 08:01:44;;;;;;;9.50;7.03;;;;;;;;;;4884219;29;20024;-80
2021/08/14 08:04:09;;;;;;;10.67;7.37;;;;;;;;;;4877338;29;20055;-80
2021/08/14 08:06:34;;;;;;;13.65;7.88;;;;;;;;;;4885754;29;20100;-79
2021/08/14 08:09:00;;;;;;;9.07;6.50;;;;;;;;;;4889782;29;20052;-80
2021/08/14 08:11:25;;;;;;;11.05;7.32;;;;;;;;;;4892663;29;20017;-81
2021/08/14 08:13:51;;;;;;;12.15;7.22;;;;;;;;;;4887363;29;20028;-79
2021/08/14 08:16:16;;;;;;;11.18;7.43;;;;;;;;;;4894157;29;20048;-80
2021/08/14 08:18:41;;;;;;;10.70;6.80;;;;;;;;;;4893893;29;20021;-80
2021/08/14 08:21:07;;;;;;;10.60;6.83;;;;;;;;;;4893179;29;20487;-80
2021/08/14 08:23:32;;;;;;;10.85;7.45;;;;;;;;;;4884211;29;20027;-80
2021/08/14 08:25:57;;;;;;;9.73;7.07;;;;;;;;;;4886081;29;20047;-79
2021/08/14 08:28:23;;;;;;;8.82;7.00;;;;;;;;;;4883803;29;20014;-78
2021/08/14 08:30:48;;;;;;;12.52;7.13;;;;;;;;;;4887917;29;20025;-79
2021/08/14 08:33:14;;;;;;;10.82;7.03;;;;;;;;;;4884130;29;20031;-80
2021/08/14 08:35:39;;;;;;;10.48;6.90;;;;;;;;;;4885118;29;20054;-80
2021/08/14 08:38:04;;;;;;;9.57;7.17;;;;;;;;;;4878920;29;20072;-80
2021/08/14 08:40:32;;;;;;;12.07;6.63;;;;;;;;;;4893427;29;20083;-80
2021/08/14 08:42:57;;;;;;;10.10;6.95;;;;;;;;;;4880919;29;20037;-79
2021/08/14 08:45:23;;;;;;;9.20;5.97;;;;;;;;;;4890898;29;20535;-79
2021/08/14 08:47:50;;;;;;;9.48;6.63;;;;;;;;;;4876986;29;20107;-80
2021/08/14 08:50:15;;;;;;;10.80;6.15;;;;;;;;;;4885014;29;20021;-79
2021/08/14 08:52:41;;;;;;;8.38;6.25;;;;;;;;;;4884259;29;20366;-79
2021/08/14 08:55:07;;;;;;;9.18;6.47;;;;;;;;;;4886319;29;20501;-79
2021/08/14 08:57:32;;;;;;;10.52;6.55;;;;;;;;;;4889970;29;20060;-79
2021/08/14 08:59:58;;;;;;;10.17;6.53;;;;;;;;;;4889753;29;20052;-80
2021/08/14 09:02:23;;;;;;;8.60;6.13;;;;;;;;;;4889859;29;20317;-78
2021/08/14 09:05:03;;;;;;;7.25;5.22;;;;;;;;;;4892751;29;20282;-79
2021/08/14 09:07:28;;;;;;;9.38;6.20;;;;;;;;;;4879143;29;20437;-79
2021/08/14 09:09:58;;;;;;;9.77;6.75;;;;;;;;;;4888135;29;20028;-79
2021/08/14 09:12:32;;;;;;;14.70;7.05;;;;;;;;;;4884336;29;20996;-79
2021/08/14 09:14:58;;;;;;;9.00;6.40;;;;;;;;;;4889749;29;20618;-78
2021/08/14 09:17:27;;;;;;;10.40;7.50;;;;;;;;;;4889091;29;20017;-79
2021/08/14 09:20:13;;;;;;;7.82;5.85;;;;;;;;;;4892166;29;20375;-79
2021/08/14 09:22:39;;;;;;;8.32;5.97;;;;;;;;;;4888537;29;20054;-79
2021/08/14 09:25:14;;;;;;;8.07;6.13;;;;;;;;;;4893162;29;20442;-80
2021/08/14 09:27:49;;;;;;;10.15;6.28;;;;;;;;;;4871159;29;20366;-79
2021/08/14 09:30:14;;;;;;;11.90;6.40;;;;;;;;;;4878592;29;20354;-80
2021/08/14 09:32:39;;;;;;;12.30;7.17;;;;;;;;;;4882235;29;20021;-80
2021/08/14 09:35:05;;;;;;;9.63;6.13;;;;;;;;;;4883305;29;20024;-78
2021/08/14 09:40:38;;;;;;;9.95;6.22;;;;;;;;;;4883267;29;20387;-78
2021/08/14 09:43:04;;;;;;;11.43;6.40;;;;;;;;;;4878912;29;20148;-79
2021/08/14 09:45:29;;;;;;;9.80;6.18;;;;;;;;;;4890827;29;20107;-80
2021/08/14 09:47:55;;;;;;;11.13;7.15;;;;;;;;;;4872721;29;20029;-78
2021/08/14 09:50:40;;;;;;;9.70;6.10;;;;;;;;;;4888646;29;20029;-78
2021/08/14 09:53:13;;;;;;;8.77;5.93;;;;;;;;;;4881252;29;20433;-79
2021/08/14 09:55:39;;;;;;;13.88;6.88;;;;;;;;;;4894802;29;20664;-79
2021/08/14 09:58:05;;;;;;;11.50;6.35;;;;;;;;;;4883741;29;20029;-80
2021/08/14 10:00:31;;;;;;;9.65;6.82;;;;;;;;;;4877026;29;20532;-80
2021/08/14 10:03:00;;;;;;;11.50;6.53;;;;;;;;;;4886205;29;20479;-80
2021/08/14 10:05:25;;;;;;;8.30;6.22;;;;;;;;;;4888275;29;20647;-79
2021/08/14 10:07:51;;;;;;;9.13;6.20;;;;;;;;;;4891496;29;20096;-79
2021/08/14 10:10:16;;;;;;;7.40;6.05;;;;;;;;;;4884410;29;20017;-80
2021/08/14 10:12:42;;;;;;;9.23;5.80;;;;;;;;;;4884548;29;20028;-79
2021/08/14 10:15:08;;;;;;;8.00;5.72;;;;;;;;;;4892371;29;20017;-78
2021/08/14 10:17:33;;;;;;;9.48;6.18;;;;;;;;;;4893991;29;20020;-79
2021/08/14 10:19:59;;;;;;;9.45;5.95;;;;;;;;;;4880990;29;20029;-78
2021/08/14 10:22:25;;;;;;;11.45;6.60;;;;;;;;;;4872086;29;20013;-79
2021/08/14 10:24:51;;;;;;;8.52;6.65;;;;;;;;;;4889163;29;20013;-79
2021/08/14 10:27:17;;;;;;;10.25;6.05;;;;;;;;;;4886432;29;20424;-79
2021/08/14 10:29:50;;;;;;;9.35;6.60;;;;;;;;;;4883986;29;20738;-79
2021/08/14 10:32:30;;;;;;;11.20;6.85;;;;;;;;;;4886994;29;20449;-80
2021/08/14 10:35:14;;;;;;;9.32;6.40;;;;;;;;;;4881038;29;20029;-80
2021/08/14 10:37:41;;;;;;;8.55;6.68;;;;;;;;;;4876584;29;20107;-79
2021/08/14 10:40:07;;;;;;;9.38;6.18;;;;;;;;;;4887556;29;20025;-79
2021/08/14 10:42:57;;;;;;;10.27;6.65;;;;;;;;;;4881797;29;20044;-80
2021/08/14 10:45:25;;;;;;;7.05;6.18;;;;;;;;;;4886742;29;20436;-79
2021/08/14 10:47:51;;;;;;;8.68;6.20;;;;;;;;;;4887864;29;20500;-79
2021/08/14 10:50:32;;;;;;;10.88;6.68;;;;;;;;;;4887709;29;20048;-82
2021/08/14 10:53:12;;;;;;;8.35;6.05;;;;;;;;;;4880296;29;20145;-79
2021/08/14 10:55:56;;;;;;;9.23;7.60;;;;;;;;;;4879387;29;20012;-80
2021/08/14 10:58:29;;;;;;;9.68;6.60;;;;;;;;;;4886459;29;20025;-80
2021/08/14 11:01:03;;;;;;;9.88;7.07;;;;;;;;;;4886587;29;20099;-80
2021/08/14 11:03:33;;;;;;;10.23;6.38;;;;;;;;;;4887418;29;20049;-79
2021/08/14 11:06:17;;;;;;;8.80;6.53;;;;;;;;;;4880243;29;20151;-80
2021/08/14 11:08:42;;;;;;;10.18;7.25;;;;;;;;;;4886777;29;20372;-80
2021/08/14 11:11:28;;;;;;;9.07;6.30;;;;;;;;;;4866680;29;20038;-80
2021/08/14 11:14:06;;;;;;;9.75;6.15;;;;;;;;;;4889215;29;20033;-79
2021/08/14 11:16:50;;;;;;;12.63;6.80;;;;;;;;;;4882757;29;20148;-79
2021/08/14 11:19:35;;;;;;;10.38;7.03;;;;;;;;;;4894711;29;20059;-78
2021/08/14 11:22:16;;;;;;;11.73;6.72;;;;;;;;;;4884959;29;21889;-79
2021/08/14 11:24:42;;;;;;;9.55;6.80;;;;;;;;;;4896253;29;20021;-79
2021/08/14 11:27:16;;;;;;;9.02;6.53;;;;;;;;;;4881022;29;20535;-79
2021/08/14 11:29:42;;;;;;;10.27;6.70;;;;;;;;;;4883181;29;20024;-78
2021/08/14 11:32:07;;;;;;;9.95;6.90;;;;;;;;;;4880664;29;20108;-78
2021/08/14 11:34:33;;;;;;;7.60;6.30;;;;;;;;;;4876183;29;20489;-78
2021/08/14 11:36:59;;;;;;;10.82;7.13;;;;;;;;;;4876574;29;20492;-79
2021/08/14 11:39:33;;;;;;;10.45;6.78;;;;;;;;;;4875201;29;20104;-78
2021/08/14 11:41:58;;;;;;;10.43;7.00;;;;;;;;;;4872671;29;20047;-78
2021/08/14 11:44:27;;;;;;;11.48;6.85;;;;;;;;;;4875162;29;20017;-77
2021/08/14 11:47:05;;;;;;;8.38;6.47;;;;;;;;;;4875736;29;20020;-78
2021/08/14 11:49:55;;;;;;;10.07;6.55;;;;;;;;;;4869360;29;20056;-79
2021/08/14 11:52:21;;;;;;;10.00;7.40;;;;;;;;;;4870659;29;20055;-79
2021/08/14 11:54:47;;;;;;;12.00;6.53;;;;;;;;;;4869156;29;20032;-79
2021/08/14 11:57:12;;;;;;;11.13;7.18;;;;;;;;;;4871079;29;20033;-78
2021/08/14 11:59:47;;;;;;;9.95;6.85;;;;;;;;;;4875159;29;20024;-78
2021/08/14 12:02:17;;;;;;;10.50;7.32;;;;;;;;;;4873427;29;20063;-78
2021/08/14 12:04:44;;;;;;;9.47;6.57;;;;;;;;;;4873279;29;20616;-79
2021/08/14 12:07:13;;;;;;;8.23;6.38;;;;;;;;;;4869640;29;20024;-79
2021/08/14 12:09:38;;;;;;;9.95;7.35;;;;;;;;;;4870462;29;20088;-78
2021/08/14 12:12:06;;;;;;;12.73;7.80;;;;;;;;;;4867922;29;20067;-79
2021/08/14 12:14:40;;;;;;;10.88;7.20;;;;;;;;;;4871753;29;20645;-80
2021/08/14 12:17:05;;;;;;;9.98;7.53;;;;;;;;;;4873394;29;20133;-80
2021/08/14 12:19:45;;;;;;;10.25;6.90;;;;;;;;;;4873413;29;20140;-79
2021/08/14 12:22:13;;;;;;;12.30;6.78;;;;;;;;;;4870633;29;20388;-80
2021/08/14 12:24:48;;;;;;;11.30;7.53;;;;;;;;;;4868660;29;20064;-80
2021/08/14 12:27:27;;;;;;;16.23;9.13;;;;;;;;;;4877609;29;20021;-78
2021/08/14 12:29:55;;;;;;;11.80;7.75;;;;;;;;;;4873072;29;20611;-79
2021/08/14 12:32:27;;;;;;;12.90;7.60;;;;;;;;;;4872813;29;20052;-78
2021/08/14 12:35:20;;;;;;;10.13;7.03;;;;;;;;;;4873015;29;20036;-79
2021/08/14 12:38:05;;;;;;;12.45;8.65;;;;;;;;;;4871621;29;20057;-79
2021/08/14 12:40:40;;;;;;;12.20;8.43;;;;;;;;;;4872458;29;20033;-79
2021/08/14 12:43:17;;;;;;;9.85;7.28;;;;;;;;;;4875244;29;20696;-79
2021/08/14 12:45:46;;;;;;;;;;;;;;;;;;4874443;29;20028;-79
2021/08/14 12:48:23;;;;;;;13.43;8.88;;;;;;;;;;4870852;29;20271;-79
2021/08/14 12:50:51;;;;;;;11.93;7.07;;;;;;;;;;4867396;29;20025;-81
2021/08/14 12:53:24;;;;;;;10.10;7.40;;;;;;;;;;4872802;29;20017;-79
2021/08/14 12:55:50;;;;;;;10.65;7.78;;;;;;;;;;4874939;29;20533;-80
2021/08/14 12:58:29;;;;;;;15.30;7.50;;;;;;;;;;4871932;29;20021;-80
2021/08/14 13:01:00;;;;;;;9.80;8.05;;;;;;;;;;4868310;29;20392;-78
2021/08/14 13:03:37;;;;;;;12.45;7.25;;;;;;;;;;4874816;29;20044;-79
2021/08/14 13:06:02;;;;;;;15.50;7.57;;;;;;;;;;4886410;29;20686;-78
2021/08/14 13:08:28;;;;;;;11.37;7.63;;;;;;;;;;4879142;29;20025;-79
2021/08/14 13:10:53;;;;;;;12.23;7.80;;;;;;;;;;4886882;29;20317;-79
2021/08/14 13:13:18;;;;;;;10.47;7.57;;;;;;;;;;4884093;29;20025;-79
2021/08/14 13:15:44;;;;;;;10.80;7.72;;;;;;;;;;4887920;29;20009;-80
2021/08/14 13:18:09;;;;;;;13.10;8.00;;;;;;;;;;4891418;29;20161;-79
2021/08/14 13:20:35;;;;;;;9.27;7.10;;;;;;;;;;4885170;29;20067;-79
2021/08/14 13:23:00;;;;;;;12.15;8.13;;;;;;;;;;4893394;29;20020;-79
2021/08/14 13:25:26;;;;;;;13.00;7.57;;;;;;;;;;4893158;29;20025;-80
2021/08/14 13:27:52;;;;;;;13.05;7.57;;;;;;;;;;4875727;29;20460;-78
2021/08/14 13:30:20;;;;;;;12.80;7.93;;;;;;;;;;4882862;29;20475;-79
2021/08/14 13:32:46;;;;;;;11.23;7.47;;;;;;;;;;4885562;29;20391;-79
2021/08/14 13:35:12;;;;;;;11.73;7.70;;;;;;;;;;4882251;29;20494;-80
2021/08/14 13:37:38;;;;;;;11.35;7.60;;;;;;;;;;4876713;29;20362;-79
2021/08/14 13:40:05;;;;;;;10.20;7.68;;;;;;;;;;4883696;29;20381;-80
2021/08/14 13:42:30;;;;;;;10.55;7.63;;;;;;;;;;4889257;29;20080;-78
2021/08/14 13:44:56;;;;;;;11.60;7.20;;;;;;;;;;4885466;29;20425;-80
2021/08/14 13:47:21;;;;;;;12.98;8.02;;;;;;;;;;4890755;29;20021;-78
2021/08/14 13:49:47;;;;;;;10.43;7.77;;;;;;;;;;4880844;29;20472;-78
2021/08/14 13:52:12;;;;;;;9.57;7.57;;;;;;;;;;4888393;29;20036;-79
2021/08/14 13:54:37;;;;;;;10.87;8.00;;;;;;;;;;4891582;29;20111;-78
2021/08/14 13:57:03;;;;;;;8.20;7.23;;;;;;;;;;4893555;29;20111;-79
2021/08/14 13:59:28;;;;;;;12.02;8.45;;;;;;;;;;4883118;29;20065;-79
2021/08/14 14:01:53;;;;;;;12.80;7.40;;;;;;;;;;4882588;29;20021;-80
2021/08/14 14:04:19;;;;;;;10.73;7.20;;;;;;;;;;4884996;29;20056;-80
2021/08/14 14:06:44;;;;;;;11.13;7.80;;;;;;;;;;4881390;29;20037;-78
2021/08/14 14:09:09;;;;;;;9.87;7.37;;;;;;;;;;4887404;29;20037;-80
2021/08/14 14:11:35;;;;;;;11.25;7.82;;;;;;;;;;4882151;29;20365;-80
2021/08/14 14:14:00;;;;;;;12.02;7.75;;;;;;;;;;4884278;29;20021;-80
2021/08/14 14:16:25;;;;;;;11.93;7.70;;;;;;;;;;4889812;29;20029;-80
2021/08/14 14:18:51;;;;;;;12.27;7.93;;;;;;;;;;4885945;29;20052;-79
2021/08/14 14:21:18;;;;;;;10.10;7.78;;;;;;;;;;4876315;29;20392;-81
2021/08/14 14:23:43;;;;;;;9.95;7.70;;;;;;;;;;4885164;29;20087;-80
2021/08/14 14:26:08;;;;;;;11.93;8.02;;;;;;;;;;4889787;29;20547;-80
2021/08/14 14:28:33;;;;;;;12.50;8.70;;;;;;;;;;4882558;29;20096;-78
2021/08/14 14:30:59;;;;;;;13.27;8.43;;;;;;;;;;4889754;29;20056;-79
2021/08/14 14:33:24;;;;;;;11.10;8.03;;;;;;;;;;4889008;29;20037;-80
2021/08/14 14:35:49;;;;;;;14.03;8.60;;;;;;;;;;4887407;29;20029;-79